createdAt,value
2022-09-07T00:01:45.991Z,94061.44
2022-09-07T00:04:15.153Z,94056.00
2022-09-07T00:06:42.875Z,94057.94
2022-09-07T00:09:10.618Z,94056.28
2022-09-07T00:11:38.329Z,94052.47
2022-09-07T00:14:07.534Z,94060.94
2022-09-07T00:16:35.396Z,94073.44
2022-09-07T00:19:04.405Z,94068.00
2022-09-07T00:21:33.528Z,94070.72
2022-09-07T00:24:01.220Z,94074.53
2022-09-07T00:26:29.632Z,94075.34
2022-09-07T00:28:58.285Z,94075.34
2022-09-07T00:31:26.048Z,94077.25
2022-09-07T00:33:54.224Z,94076.44
2022-09-07T00:36:22.565Z,94067.16
2022-09-07T00:38:51.732Z,94066.38
2022-09-07T00:41:19.765Z,94063.66
2022-09-07T00:43:49.040Z,94066.66
2022-09-07T00:46:17.582Z,94063.94
2022-09-07T00:48:48.608Z,94064.75
2022-09-07T00:51:17.989Z,94058.47
2022-09-07T00:53:46.855Z,94052.25
2022-09-07T00:56:15.907Z,94047.59
2022-09-07T00:58:43.769Z,94051.13
2022-09-07T01:01:11.534Z,94044.06
2022-09-07T01:03:40.729Z,94042.44
2022-09-07T01:06:10.866Z,94036.19
2022-09-07T01:08:38.549Z,94038.91
2022-09-07T01:11:06.462Z,94037.00
2022-09-07T01:13:35.543Z,94040.53
2022-09-07T01:16:07.460Z,94039.72
2022-09-07T01:18:39.090Z,94041.34
2022-09-07T01:21:25.252Z,94041.63
2022-09-07T01:24:28.689Z,94040.53
2022-09-07T01:27:38.201Z,94039.72
2022-09-07T01:30:07.582Z,94026.38
2022-09-07T01:32:50.448Z,94024.50
2022-09-07T01:35:21.769Z,94025.28
2022-09-07T01:37:55.060Z,94029.13
2022-09-07T01:40:29.193Z,94019.06
2022-09-07T01:43:00.860Z,94030.72
2022-09-07T01:45:31.285Z,94018.22
2022-09-07T01:47:59.621Z,94014.41
2022-09-07T01:50:28.181Z,94013.59
2022-09-07T01:52:57.450Z,94001.88
2022-09-07T01:55:27.361Z,94004.59
2022-09-07T01:57:56.378Z,94005.72
2022-09-07T02:00:25.761Z,94000.28
2022-09-07T02:02:54.203Z,94011.16
2022-09-07T02:05:22.672Z,94000.28
2022-09-07T02:07:51.945Z,93991.28
2022-09-07T02:10:22.164Z,93995.91
2022-09-07T02:12:52.542Z,93993.19
2022-09-07T02:15:22.912Z,94014.97
2022-09-07T02:17:53.111Z,94018.81
2022-09-07T02:20:23.250Z,94008.72
2022-09-07T02:22:53.701Z,94006.00
2022-09-07T02:25:22.996Z,94014.16
2022-09-07T02:27:51.782Z,94017.69
2022-09-07T02:30:19.773Z,94006.00
2022-09-07T02:32:47.469Z,94013.34
2022-09-07T02:35:16.592Z,94007.91
2022-09-07T02:37:44.254Z,93999.75
2022-09-07T02:40:12.679Z,94007.91
2022-09-07T02:42:40.396Z,94002.47
2022-09-07T02:45:09.475Z,94006.28
2022-09-07T02:47:40.617Z,94008.72
2022-09-07T02:50:15.744Z,94000.53
2022-09-07T02:52:51.259Z,94006.28
2022-09-07T02:55:24.629Z,94007.91
2022-09-07T02:57:58.030Z,94010.63
2022-09-07T03:00:26.942Z,94011.75
2022-09-07T03:02:59.120Z,94000.84
2022-09-07T03:05:28.827Z,93997.03
2022-09-07T03:08:02.083Z,93994.59
2022-09-07T03:10:29.954Z,94007.91
2022-09-07T03:12:57.810Z,94001.66
2022-09-07T03:15:26.703Z,93988.84
2022-09-07T03:17:54.634Z,93993.47
2022-09-07T03:20:22.812Z,93990.75
2022-09-07T03:22:51.556Z,94001.66
2022-09-07T03:25:20.661Z,94007.09
2022-09-07T03:27:48.337Z,94006.28
2022-09-07T03:30:16.110Z,94006.28
2022-09-07T03:32:43.790Z,94000.84
2022-09-07T03:35:11.462Z,94003.56
2022-09-07T03:37:39.299Z,94009.03
2022-09-07T03:40:08.786Z,94012.84
2022-09-07T03:42:37.952Z,94012.84
2022-09-07T03:45:06.669Z,94017.47
2022-09-07T03:47:34.833Z,94021.00
2022-09-07T03:50:02.528Z,94023.72
2022-09-07T03:52:30.203Z,94026.44
2022-09-07T03:54:57.940Z,94025.63
2022-09-07T03:57:25.598Z,94024.53
2022-09-07T03:59:54.675Z,94020.19
2022-09-07T04:02:22.380Z,94018.28
2022-09-07T04:04:50.093Z,94019.38
2022-09-07T04:07:17.760Z,94025.63
2022-09-07T04:09:45.413Z,94019.66
2022-09-07T04:12:13.321Z,94021.28
2022-09-07T04:14:41.173Z,94024.28
2022-09-07T04:17:10.283Z,94022.09
2022-09-07T04:19:38.113Z,94020.75
2022-09-07T04:22:05.974Z,94021.56
2022-09-07T04:24:33.704Z,94026.22
2022-09-07T04:27:02.038Z,94024.28
2022-09-07T04:29:29.699Z,94027.00
2022-09-07T04:31:57.357Z,94032.44
2022-09-07T04:34:26.486Z,94029.72
2022-09-07T04:36:54.177Z,94034.91
2022-09-07T04:39:21.955Z,94027.00
2022-09-07T04:41:49.611Z,94028.09
2022-09-07T04:44:17.345Z,94040.09
2022-09-07T04:46:45.028Z,94037.38
2022-09-07T04:49:12.717Z,94036.56
2022-09-07T04:51:44.230Z,94030.59
2022-09-07T04:54:12.093Z,94031.72
2022-09-07T04:56:39.741Z,94035.50
2022-09-07T04:59:07.508Z,94030.88
2022-09-07T05:01:35.318Z,94031.97
2022-09-07T05:04:03.513Z,94035.81
2022-09-07T05:06:31.229Z,94032.56
2022-09-07T05:09:00.267Z,94045.66
2022-09-07T05:11:29.456Z,94050.53
2022-09-07T05:13:58.011Z,94048.91
2022-09-07T05:16:25.966Z,94052.47
2022-09-07T05:18:54.582Z,94057.91
2022-09-07T05:21:23.332Z,94050.53
2022-09-07T05:23:51.453Z,94058.69
2022-09-07T05:26:21.222Z,94062.53
2022-09-07T05:28:48.971Z,94059.81
2022-09-07T05:31:18.293Z,94062.53
2022-09-07T05:36:34.569Z,94076.13
2022-09-07T05:39:02.221Z,94069.06
2022-09-07T05:41:31.291Z,94079.94
2022-09-07T05:46:46.675Z,94082.66
2022-09-07T05:49:14.334Z,94092.75
2022-09-07T05:51:42.119Z,94087.31
2022-09-07T05:54:11.365Z,94099.00
2022-09-07T05:56:40.377Z,94102.81
2022-09-07T05:59:08.151Z,94099.00
2022-09-07T06:01:36.316Z,94095.47
2022-09-07T06:04:04.206Z,94102.56
2022-09-07T06:06:32.505Z,94092.75
2022-09-07T06:09:00.221Z,94100.94
2022-09-07T06:11:28.157Z,94103.66
2022-09-07T06:13:57.409Z,94099.00
2022-09-07T06:16:25.256Z,94097.09
2022-09-07T06:18:53.037Z,94110.41
2022-09-07T06:21:21.338Z,94114.22
2022-09-07T06:23:49.117Z,94108.78
2022-09-07T06:26:17.336Z,94113.13
2022-09-07T06:28:48.847Z,94111.25
2022-09-07T06:31:20.087Z,94114.75
2022-09-07T06:33:48.469Z,94118.31
2022-09-07T06:36:16.770Z,94117.22
2022-09-07T06:38:44.546Z,94122.91
2022-09-07T06:44:01.462Z,94128.09
2022-09-07T06:49:18.342Z,94135.16
2022-09-07T06:51:46.010Z,94139.50
2022-09-07T06:57:07.921Z,94138.97
2022-09-07T06:59:35.697Z,94141.44
2022-09-07T07:02:05.157Z,94144.16
2022-09-07T07:04:37.658Z,94139.50
2022-09-07T07:07:07.393Z,94145.78
2022-09-07T07:09:35.033Z,94139.22
2022-09-07T07:12:02.970Z,94139.22
2022-09-07T07:14:33.742Z,94134.59
2022-09-07T07:17:04.633Z,94129.97
2022-09-07T07:19:32.441Z,94129.13
2022-09-07T07:22:46.017Z,94127.25
2022-09-07T07:24:48.003Z,94138.94
2022-09-07T07:27:15.691Z,94133.47
2022-09-07T07:29:43.345Z,94147.09
2022-09-07T07:32:12.410Z,94144.38
2022-09-07T07:34:40.047Z,94142.47
2022-09-07T07:37:07.808Z,94142.47
2022-09-07T07:42:23.213Z,94149.53
2022-09-07T07:47:39.997Z,94149.53
2022-09-07T07:55:43.997Z,94148.75
2022-09-07T07:58:11.980Z,94161.25
2022-09-07T08:00:53.666Z,94159.63
2022-09-07T08:03:24.131Z,94155.81
2022-09-07T08:05:51.984Z,94153.91
2022-09-07T08:08:19.665Z,94158.53
2022-09-07T08:10:47.633Z,94159.34
2022-09-07T08:13:15.322Z,94157.44
2022-09-07T08:15:44.497Z,94163.69
2022-09-07T08:18:13.099Z,94162.88
2022-09-07T08:20:41.985Z,94165.59
2022-09-07T08:23:10.144Z,94162.06
2022-09-07T08:25:37.690Z,94160.16
2022-09-07T08:28:05.276Z,94149.28
2022-09-07T08:30:32.801Z,94148.19
2022-09-07T08:33:00.385Z,94150.91
2022-09-07T08:35:27.893Z,94148.97
2022-09-07T08:37:56.765Z,94151.69
2022-09-07T08:40:24.378Z,94148.97
2022-09-07T08:43:01.012Z,94149.81
2022-09-07T08:45:30.021Z,94147.06
2022-09-07T08:47:58.081Z,94143.25
2022-09-07T08:50:29.296Z,94145.16
2022-09-07T08:52:59.781Z,94145.97
2022-09-07T08:55:28.577Z,94152.22
2022-09-07T08:58:03.759Z,94144.06
2022-09-07T09:00:32.082Z,94146.78
2022-09-07T09:05:51.536Z,94146.78
2022-09-07T09:08:27.836Z,94153.03
2022-09-07T09:10:59.401Z,94158.22
2022-09-07T09:13:32.000Z,94147.59
2022-09-07T09:16:01.656Z,94147.59
2022-09-07T09:18:34.953Z,94151.94
2022-09-07T09:21:03.541Z,94151.69
2022-09-07T09:23:35.587Z,94152.47
2022-09-07T09:26:05.571Z,94146.22
2022-09-07T09:28:33.441Z,94152.78
2022-09-07T09:31:01.448Z,94159.84
2022-09-07T09:33:29.416Z,94150.84
2022-09-07T09:35:57.805Z,94143.22
2022-09-07T09:38:31.212Z,94141.59
2022-09-07T09:41:01.493Z,94153.31
2022-09-07T09:43:30.734Z,94147.84
2022-09-07T09:46:13.636Z,94149.47
2022-09-07T09:48:41.982Z,94154.09
2022-09-07T09:53:59.006Z,94142.94
2022-09-07T09:56:41.334Z,94142.94
2022-09-07T10:05:28.292Z,94125.50
2022-09-07T10:07:56.253Z,94129.84
2022-09-07T10:10:23.778Z,94130.66
2022-09-07T10:12:54.329Z,94130.66
2022-09-07T10:15:32.867Z,94130.66
2022-09-07T10:18:04.429Z,94118.97
2022-09-07T10:20:36.137Z,94120.59
2022-09-07T10:23:03.896Z,94120.59
2022-09-07T10:25:32.976Z,94109.69
2022-09-07T10:28:07.461Z,94101.53
2022-09-07T10:30:38.668Z,94103.97
2022-09-07T10:33:09.029Z,94092.25
2022-09-07T10:35:38.692Z,94088.44
2022-09-07T10:38:15.052Z,94084.91
2022-09-07T10:40:43.955Z,94077.53
2022-09-07T10:43:21.459Z,94082.19
2022-09-07T10:46:02.338Z,94077.53
2022-09-07T10:48:32.549Z,94073.72
2022-09-07T10:51:09.843Z,94070.19
2022-09-07T10:53:44.198Z,94062.81
2022-09-07T10:56:12.902Z,94066.38
2022-09-07T10:59:05.118Z,94063.66
2022-09-07T11:01:40.053Z,94057.09
2022-09-07T11:04:29.705Z,94048.66
2022-09-07T11:07:00.974Z,94050.56
2022-09-07T11:09:49.826Z,94041.28
2022-09-07T11:12:18.613Z,94040.50
2022-09-07T11:14:48.888Z,94038.56
2022-09-07T11:17:17.949Z,94037.47
2022-09-07T11:19:50.133Z,94036.66
2022-09-07T11:22:25.733Z,94026.56
2022-09-07T11:27:45.538Z,94027.41
2022-09-07T11:30:18.605Z,94031.75
2022-09-07T11:32:56.817Z,94018.94
2022-09-07T11:35:30.217Z,94022.47
2022-09-07T11:38:00.208Z,94027.09
2022-09-07T11:40:28.788Z,94015.09
2022-09-07T11:42:59.659Z,94012.94
2022-09-07T11:45:31.658Z,94005.56
2022-09-07T11:48:00.861Z,94002.56
2022-09-07T11:50:30.193Z,94007.16
2022-09-07T11:52:58.793Z,94006.38
2022-09-07T11:55:28.417Z,93997.91
2022-09-07T11:58:07.424Z,94006.91
2022-09-07T12:00:40.620Z,93998.72
2022-09-07T12:03:24.366Z,94004.16
2022-09-07T12:06:02.361Z,94010.41
2022-09-07T12:08:43.028Z,94003.06
2022-09-07T12:11:22.600Z,94004.69
2022-09-07T12:14:13.721Z,94000.03
2022-09-07T12:16:54.318Z,93995.41
2022-09-07T12:19:22.491Z,93989.97
2022-09-07T12:21:55.417Z,93984.53
2022-09-07T12:24:43.109Z,93983.41
2022-09-07T12:27:12.935Z,93979.59
2022-09-07T12:29:45.290Z,93974.97
2022-09-07T12:35:02.402Z,93973.03
2022-09-07T12:37:43.085Z,93965.69
2022-09-07T12:40:48.770Z,93970.03
2022-09-07T12:43:36.571Z,93969.22
2022-09-07T12:46:04.230Z,93963.50
2022-09-07T12:48:39.500Z,93963.22
2022-09-07T12:51:09.457Z,93965.13
2022-09-07T12:53:37.272Z,93963.50
2022-09-07T12:56:18.481Z,93959.66
2022-09-07T12:58:57.017Z,93956.94
2022-09-07T13:01:37.674Z,93960.78
2022-09-07T13:04:23.386Z,93959.94
2022-09-07T13:07:18.118Z,93949.06
2022-09-07T13:09:54.625Z,93942.81
2022-09-07T13:15:34.165Z,93938.47
2022-09-07T13:18:03.430Z,93931.91
2022-09-07T13:20:37.673Z,93924.53
2022-09-07T13:23:23.537Z,93920.19
2022-09-07T13:25:53.781Z,93922.91
2022-09-07T13:28:26.685Z,93920.19
2022-09-07T13:31:01.554Z,93913.13
2022-09-07T13:33:47.346Z,93914.22
2022-09-07T13:36:40.610Z,93919.41
2022-09-07T13:39:11.417Z,93917.78
2022-09-07T13:41:43.031Z,93912.34
2022-09-07T13:44:21.353Z,93911.50
2022-09-07T13:46:59.188Z,93902.53
2022-09-07T13:49:37.721Z,93904.16
2022-09-07T13:52:08.780Z,93898.72
2022-09-07T13:54:46.114Z,93901.44
2022-09-07T13:57:16.620Z,93903.34
2022-09-07T13:59:44.159Z,93909.59
2022-09-07T14:02:22.512Z,93901.44
2022-09-07T14:04:50.602Z,93896.78
2022-09-07T14:07:21.221Z,93897.63
2022-09-07T14:09:49.366Z,93902.25
2022-09-07T14:12:17.469Z,93898.72
2022-09-07T14:14:44.994Z,93898.72
2022-09-07T14:17:14.779Z,93897.91
2022-09-07T14:19:45.177Z,93892.44
2022-09-07T14:22:14.236Z,93891.34
2022-09-07T14:24:44.363Z,93887.81
2022-09-07T14:27:23.123Z,93879.66
2022-09-07T14:29:50.659Z,93878.03
2022-09-07T14:32:24.191Z,93880.75
2022-09-07T14:34:52.116Z,93866.31
2022-09-07T14:37:21.130Z,93869.88
2022-09-07T14:39:50.708Z,93867.16
2022-09-07T14:42:20.273Z,93867.94
2022-09-07T14:44:49.359Z,93869.88
2022-09-07T14:47:29.267Z,93867.16
2022-09-07T14:49:58.082Z,93864.41
2022-09-07T14:52:30.399Z,93866.31
2022-09-07T14:54:59.503Z,93866.31
2022-09-07T14:57:30.254Z,93863.59
2022-09-07T14:59:58.796Z,93860.88
2022-09-07T15:02:47.337Z,93860.06
2022-09-07T15:05:26.061Z,93851.09
2022-09-07T15:07:55.237Z,93843.75
2022-09-07T15:10:36.891Z,93840.19
2022-09-07T15:13:06.187Z,93851.09
2022-09-07T15:15:34.457Z,93842.91
2022-09-07T15:18:08.450Z,93848.06
2022-09-07T15:20:38.191Z,93844.53
2022-09-07T15:23:06.330Z,93843.75
2022-09-07T15:25:35.319Z,93841.00
2022-09-07T15:28:03.304Z,93840.19
2022-09-07T15:30:30.915Z,93839.38
2022-09-07T15:32:58.894Z,93840.19
2022-09-07T15:35:26.757Z,93838.28
2022-09-07T15:38:02.778Z,93839.38
2022-09-07T15:40:51.257Z,93836.66
2022-09-07T15:43:28.583Z,93825.75
2022-09-07T15:45:56.443Z,93824.97
2022-09-07T15:48:25.248Z,93812.97
2022-09-07T15:50:53.999Z,93819.22
2022-09-07T15:56:10.627Z,93813.78
2022-09-07T15:58:38.232Z,93816.78
2022-09-07T16:03:53.876Z,93817.59
2022-09-07T16:06:21.810Z,93809.41
2022-09-07T16:08:51.384Z,93806.69
2022-09-07T16:11:23.918Z,93811.06
2022-09-07T16:13:55.942Z,93809.41
2022-09-07T16:17:26.635Z,93804.78
2022-09-07T16:19:14.239Z,93802.06
2022-09-07T16:21:42.774Z,93803.97
2022-09-07T16:24:10.349Z,93803.97
2022-09-07T16:26:39.332Z,93803.16
2022-09-07T16:29:06.828Z,93791.47
2022-09-07T16:31:34.791Z,93788.72
2022-09-07T16:34:02.714Z,93786.84
2022-09-07T16:36:30.623Z,93790.34
2022-09-07T16:38:59.671Z,93778.66
2022-09-07T16:41:29.088Z,93779.47
2022-09-07T16:43:58.193Z,93774.84
2022-09-07T16:46:27.596Z,93773.72
2022-09-07T16:48:55.204Z,93773.13
2022-09-07T16:51:23.467Z,93766.81
2022-09-07T16:53:51.590Z,93762.91
2022-09-07T16:56:20.134Z,93758.72
2022-09-07T16:58:48.690Z,93764.28
2022-09-07T17:01:18.898Z,93760.09
2022-09-07T17:03:46.691Z,93765.69
2022-09-07T17:06:15.014Z,93757.94
2022-09-07T17:08:42.875Z,93763.81
2022-09-07T17:11:11.187Z,93759.38
2022-09-07T17:13:39.699Z,93761.72
2022-09-07T17:16:08.714Z,93759.19
2022-09-07T17:21:27.193Z,93749.22
2022-09-07T17:23:55.911Z,93748.63
2022-09-07T17:26:26.700Z,93754.28
2022-09-07T17:28:55.614Z,93745.50
2022-09-07T17:34:14.131Z,93754.41
2022-09-07T17:36:44.822Z,93757.63
2022-09-07T17:39:17.635Z,93756.22
2022-09-07T17:41:46.637Z,93756.72
2022-09-07T17:44:14.668Z,93749.84
2022-09-07T17:46:42.317Z,93751.16
2022-09-07T17:49:12.301Z,93742.41
2022-09-07T17:51:41.525Z,93740.47
2022-09-07T17:54:12.041Z,93733.91
2022-09-07T17:56:39.845Z,93731.41
2022-09-07T18:01:55.463Z,93726.16
2022-09-07T18:04:23.131Z,93719.56
2022-09-07T18:06:52.258Z,93724.41
2022-09-07T18:09:20.827Z,93727.66
2022-09-07T18:11:49.593Z,93726.25
2022-09-07T18:14:17.917Z,93734.13
2022-09-07T18:16:46.315Z,93724.84
2022-09-07T18:19:14.028Z,93723.41
2022-09-07T18:21:42.624Z,93721.00
2022-09-07T18:24:16.561Z,93728.06
2022-09-07T18:26:44.731Z,93718.75
2022-09-07T18:29:28.276Z,93719.25
2022-09-07T18:31:57.985Z,93720.88
2022-09-07T18:34:25.596Z,93717.84
2022-09-07T18:36:53.797Z,93722.19
2022-09-07T18:39:23.850Z,93720.25
2022-09-07T18:41:51.694Z,93719.97
2022-09-07T18:47:08.519Z,93727.84
2022-09-07T18:49:36.061Z,93734.94
2022-09-07T18:54:53.064Z,93739.19
2022-09-07T18:57:21.334Z,93734.13
2022-09-07T18:59:49.566Z,93735.34
2022-09-07T19:02:19.018Z,93745.25
2022-09-07T19:07:42.651Z,93749.75
2022-09-07T19:10:15.052Z,93739.75
2022-09-07T19:12:45.821Z,93741.75
2022-09-07T19:15:21.129Z,93741.56
2022-09-07T19:17:50.291Z,93749.53
2022-09-07T19:20:21.407Z,93752.88
2022-09-07T19:22:48.992Z,93748.81
2022-09-07T19:25:19.248Z,93750.56
2022-09-07T19:27:46.833Z,93750.84
2022-09-07T19:30:15.453Z,93746.28
2022-09-07T19:32:42.968Z,93746.59
2022-09-07T19:35:10.656Z,93755.34
2022-09-07T19:37:38.200Z,93749.41
2022-09-07T19:40:08.035Z,93757.91
2022-09-07T19:42:37.032Z,93739.09
2022-09-07T19:45:05.372Z,93731.53
2022-09-07T19:47:33.278Z,93725.56
2022-09-07T19:50:00.805Z,93727.75
2022-09-07T19:52:29.088Z,93723.44
2022-09-07T19:55:00.169Z,93711.22
2022-09-07T19:57:28.417Z,93700.59
2022-09-07T19:59:57.881Z,93696.28
2022-09-07T20:02:25.565Z,93696.56
2022-09-07T20:04:53.122Z,93690.31
2022-09-07T20:07:20.669Z,93692.53
2022-09-07T20:09:50.894Z,93686.25
2022-09-07T20:12:19.081Z,93684.66
2022-09-07T20:14:46.700Z,93688.19
2022-09-07T20:17:15.617Z,93685.75
2022-09-07T20:19:43.140Z,93686.03
2022-09-07T20:22:10.819Z,93673.84
2022-09-07T20:24:38.720Z,93674.66
2022-09-07T20:27:06.485Z,93667.56
2022-09-07T20:29:34.104Z,93665.97
2022-09-07T20:32:01.790Z,93666.25
2022-09-07T20:34:30.735Z,93653.75
2022-09-07T20:36:58.584Z,93647.50
2022-09-07T20:39:26.323Z,93654.06
2022-09-07T20:41:54.034Z,93642.34
2022-09-07T20:44:21.558Z,93647.78
2022-09-07T20:46:49.141Z,93642.34
2022-09-07T20:49:16.777Z,93639.94
2022-09-07T20:51:45.685Z,93645.38
2022-09-07T20:54:13.525Z,93638.28
2022-09-07T20:56:41.109Z,93637.78
2022-09-07T20:59:08.794Z,93634.25
2022-09-07T21:01:36.573Z,93628.00
2022-09-07T21:04:05.973Z,93631.81
2022-09-07T21:06:33.653Z,93623.66
2022-09-07T21:09:02.513Z,93622.00
2022-09-07T21:11:31.109Z,93614.94
2022-09-07T21:13:59.682Z,93617.66
2022-09-07T21:16:27.338Z,93611.41
2022-09-07T21:18:55.782Z,93623.13
2022-09-07T21:21:23.989Z,93650.38
2022-09-07T21:23:55.487Z,93710.31
2022-09-07T21:26:24.589Z,93720.69
2022-09-07T21:28:56.408Z,93715.25
2022-09-07T21:31:24.074Z,93721.81
2022-09-07T21:33:54.549Z,93711.69
2022-09-07T21:36:22.077Z,93719.38
2022-09-07T21:38:49.960Z,93738.44
2022-09-07T21:41:18.460Z,93749.66
2022-09-07T21:43:47.482Z,93760.56
2022-09-07T21:46:15.870Z,93759.72
2022-09-07T21:48:43.456Z,93764.34
2022-09-07T21:51:10.961Z,93769.81
2022-09-07T21:53:38.788Z,93762.72
2022-09-07T21:56:07.213Z,93757.28
2022-09-07T21:58:34.754Z,93751.03
2022-09-07T22:01:11.567Z,93752.94
2022-09-07T22:03:39.323Z,93748.59
2022-09-07T22:06:06.917Z,93746.69
2022-09-07T22:08:35.589Z,93757.28
2022-09-07T22:11:06.834Z,93748.59
2022-09-07T22:13:34.511Z,93740.44
2022-09-07T22:16:02.648Z,93726.81
2022-09-07T22:18:31.625Z,93726.03
2022-09-07T22:21:03.989Z,93727.13
2022-09-07T22:23:31.840Z,93732.56
2022-09-07T22:25:59.481Z,93739.13
2022-09-07T22:28:27.053Z,93734.47
2022-09-07T22:30:54.713Z,93733.69
2022-09-07T22:33:22.275Z,93732.03
2022-09-07T22:35:51.150Z,93737.50
2022-09-07T22:38:18.660Z,93729.31
2022-09-07T22:40:46.185Z,93714.06
2022-09-07T22:43:13.693Z,93713.28
2022-09-07T22:45:41.233Z,93711.34
2022-09-07T22:48:08.741Z,93704.28
2022-09-07T22:50:36.349Z,93692.59
2022-09-07T22:53:05.234Z,93693.72
2022-09-07T22:55:32.776Z,93695.63
2022-09-07T22:58:00.307Z,93710.06
2022-09-07T23:00:27.852Z,93711.97
2022-09-07T23:02:55.380Z,93711.16
2022-09-07T23:05:22.900Z,93720.13
2022-09-07T23:07:50.401Z,93718.50
2022-09-07T23:10:19.264Z,93713.06
2022-09-07T23:12:46.777Z,93711.44
2022-09-07T23:15:14.367Z,93719.34
2022-09-07T23:17:41.902Z,93726.97
2022-09-07T23:20:10.097Z,93724.25
2022-09-07T23:22:37.612Z,93722.63
2022-09-07T23:25:05.870Z,93724.56
2022-09-07T23:27:35.220Z,93714.78
2022-09-07T23:30:02.793Z,93706.59
2022-09-07T23:32:30.314Z,93701.16
2022-09-07T23:34:57.953Z,93694.88
2022-09-07T23:37:25.544Z,93690.25
2022-09-07T23:39:53.122Z,93703.88
2022-09-07T23:42:20.693Z,93701.94
2022-09-07T23:44:49.598Z,93694.09
2022-09-07T23:47:17.091Z,93701.16
2022-09-07T23:49:44.820Z,93688.66
2022-09-07T23:52:12.873Z,93692.16
2022-09-07T23:54:40.402Z,93680.47
2022-09-07T23:57:07.949Z,93683.19
2022-09-07T23:59:35.457Z,93689.75
